Time;durP1;ratioP1;P1;durP2;ratioP2;P2;SDS_P1;SDS_P2;PMS_P1;PMS_P2;Temp;Humidity;BMP_temperature;BMP_pressure;BME280_temperature;BME280_humidity;BME280_pressure;Samples;Min_cycle;Max_cycle;Signal;HPM_P1;HPM_P2
2024/01/06 00:01:12;;;;;;;;;;;;;;;;;;5051778;28;19909;-70
2024/01/06 00:03:38;;;;;;;;;;;;;;;;;;5053683;28;20254;-70
2024/01/06 00:06:04;;;;;;;;;;;;;;;;;;5052112;28;19939;-70
2024/01/06 00:08:30;;;;;;;;;;;;;;;;;;5053108;28;20293;-70
2024/01/06 00:10:56;;;;;;;;;;;;;;;;;;5052180;28;19916;-70
2024/01/06 00:13:22;;;;;;;;;;;;;;;;;;5052180;28;19912;-70
2024/01/06 00:15:48;;;;;;;;;;;;;;;;;;5052965;28;20007;-70
2024/01/06 00:18:14;;;;;;;;;;;;;;;;;;5053395;28;19962;-70
2024/01/06 00:20:40;;;;;;;;;;;;;;;;;;5052949;28;19909;-70
2024/01/06 00:23:06;;;;;;;;;;;;;;;;;;5053364;28;19908;-70
2024/01/06 00:25:31;;;;;;;;;;;;;;;;;;5052022;28;20395;-70
2024/01/06 00:27:57;;;;;;;;;;;;;;;;;;5053194;28;20385;-70
2024/01/06 00:30:23;;;;;;;;;;;;;;;;;;5053448;28;20400;-70
2024/01/06 00:32:49;;;;;;;;;;;;;;;;;;5053421;28;19909;-70
2024/01/06 00:35:15;;;;;;;;;;;;;;;;;;5052861;28;19908;-70
2024/01/06 00:37:41;;;;;;;;;;;;;;;;;;5053184;28;19969;-71
2024/01/06 00:40:07;;;;;;;;;;;;;;;;;;5053288;28;19909;-70
2024/01/06 00:42:33;;;;;;;;;;;;;;;;;;5052776;28;19916;-70
2024/01/06 00:44:59;;;;;;;;;;;;;;;;;;5053326;28;19931;-70
2024/01/06 00:47:25;;;;;;;;;;;;;;;;;;5053381;28;19916;-70
2024/01/06 00:49:51;;;;;;;;;;;;;;;;;;5051391;28;19916;-70
2024/01/06 00:52:17;;;;;;;;;;;;;;;;;;5052995;28;19909;-70
2024/01/06 00:54:43;;;;;;;;;;;;;;;;;;5053008;28;19967;-70
2024/01/06 00:57:09;;;;;;;;;;;;;;;;;;5052389;28;20358;-68
2024/01/06 00:59:35;;;;;;;;;;;;;;;;;;5052906;28;19909;-68
2024/01/06 01:02:01;;;;;;;;;;;;;;;;;;5052971;28;19940;-69
2024/01/06 01:04:27;;;;;;;;;;;;;;;;;;5053864;28;20383;-69
2024/01/06 01:06:53;;;;;;;;;;;;;;;;;;5056464;28;19909;-69
2024/01/06 01:09:19;;;;;;;;;;;;;;;;;;5056453;28;19909;-69
2024/01/06 01:11:45;;;;;;;;;;;;;;;;;;5056288;28;19909;-69
2024/01/06 01:14:11;;;;;;;;;;;;;;;;;;5056396;28;19920;-69
2024/01/06 01:16:37;;;;;;;;;;;;;;;;;;5054974;28;20050;-69
2024/01/06 01:19:03;;;;;;;;;;;;;;;;;;5055988;28;20262;-69
2024/01/06 01:21:28;;;;;;;;;;;;;;;;;;5056151;28;19916;-69
2024/01/06 01:23:54;;;;;;;;;;;;;;;;;;5055955;28;19908;-69
2024/01/06 01:26:20;;;;;;;;;;;;;;;;;;5054971;28;20365;-69
2024/01/06 01:28:46;;;;;;;;;;;;;;;;;;5056234;28;20332;-69
2024/01/06 01:31:13;;;;;;;;;;;;;;;;;;5055691;28;19912;-69
2024/01/06 01:33:39;;;;;;;;;;;;;;;;;;5056083;28;19909;-70
2024/01/06 01:36:05;;;;;;;;;;;;;;;;;;5056209;28;19924;-70
2024/01/06 01:38:31;;;;;;;;;;;;;;;;;;5055648;28;19916;-70
2024/01/06 01:40:58;;;;;;;;;;;;;;;;;;5055912;28;20280;-70
2024/01/06 01:43:24;;;;;;;;;;;;;;;;;;5056026;28;20281;-70
2024/01/06 01:45:51;;;;;;;;;;;;;;;;;;5055450;28;19908;-70
2024/01/06 01:48:18;;;;;;;;;;;;;;;;;;5056163;28;20360;-70
2024/01/06 01:50:44;;;;;;;;;;;;;;;;;;5056163;28;19944;-70
2024/01/06 01:53:10;;;;;;;;;;;;;;;;;;5055353;28;19908;-70
2024/01/06 01:55:36;;;;;;;;;;;;;;;;;;5055464;28;19921;-70
2024/01/06 01:58:02;;;;;;;;;;;;;;;;;;5055599;28;19919;-70
2024/01/06 02:00:28;;;;;;;;;;;;;;;;;;5055233;28;19909;-70
2024/01/06 02:02:54;;;;;;;;;;;;;;;;;;5055860;28;19958;-70
2024/01/06 02:05:19;;;;;;;;;;;;;;;;;;5055476;28;20004;-69
2024/01/06 02:07:47;;;;;;;;;;;;;;;;;;5053832;28;19909;-70
2024/01/06 02:10:13;;;;;;;;;;;;;;;;;;5055424;28;19908;-70
2024/01/06 02:12:39;;;;;;;;;;;;;;;;;;5055831;28;20327;-69
2024/01/06 02:15:05;;;;;;;;;;;;;;;;;;5053673;28;19909;-69
2024/01/06 02:17:31;;;;;;;;;;;;;;;;;;5055171;28;19969;-70
2024/01/06 02:19:57;;;;;;;;;;;;;;;;;;5055220;28;19916;-68
2024/01/06 02:22:23;;;;;;;;;;;;;;;;;;5054755;28;19916;-69
2024/01/06 02:24:49;;;;;;;;;;;;;;;;;;5055317;28;19908;-69
2024/01/06 02:27:15;;;;;;;;;;;;;;;;;;5054674;28;20353;-69
2024/01/06 02:29:41;;;;;;;;;;;;;;;;;;5054965;28;19954;-69
2024/01/06 02:32:07;;;;;;;;;;;;;;;;;;5053773;28;19913;-69
2024/01/06 02:34:34;;;;;;;;;;;;;;;;;;5053306;28;19924;-69
2024/01/06 02:37:00;;;;;;;;;;;;;;;;;;5055176;28;19920;-70
2024/01/06 02:39:26;;;;;;;;;;;;;;;;;;5054857;28;19940;-70
2024/01/06 02:41:52;;;;;;;;;;;;;;;;;;5054397;28;20007;-69
2024/01/06 02:44:18;;;;;;;;;;;;;;;;;;5054785;28;19915;-69
2024/01/06 02:46:44;;;;;;;;;;;;;;;;;;5054726;28;19919;-69
2024/01/06 02:49:10;;;;;;;;;;;;;;;;;;5054194;28;19944;-70
2024/01/06 02:51:36;;;;;;;;;;;;;;;;;;5054660;28;20020;-69
2024/01/06 02:54:02;;;;;;;;;;;;;;;;;;5054608;28;19992;-69
2024/01/06 02:56:28;;;;;;;;;;;;;;;;;;5052625;28;19921;-69
2024/01/06 02:58:53;;;;;;;;;;;;;;;;;;5054445;28;20336;-70
2024/01/06 03:01:19;;;;;;;;;;;;;;;;;;5054435;28;19908;-69
2024/01/06 03:03:45;;;;;;;;;;;;;;;;;;5054024;28;19909;-70
2024/01/06 03:06:11;;;;;;;;;;;;;;;;;;5054392;28;20005;-70
2024/01/06 03:08:37;;;;;;;;;;;;;;;;;;5054368;28;19909;-70
2024/01/06 03:11:05;;;;;;;;;;;;;;;;;;5053900;28;19909;-70
2024/01/06 03:13:31;;;;;;;;;;;;;;;;;;5054434;28;20358;-68
2024/01/06 03:15:57;;;;;;;;;;;;;;;;;;5054524;28;20011;-69
2024/01/06 03:18:23;;;;;;;;;;;;;;;;;;5053852;28;20369;-69
2024/01/06 03:20:49;;;;;;;;;;;;;;;;;;5052807;28;20357;-69
2024/01/06 03:23:15;;;;;;;;;;;;;;;;;;5054273;28;20277;-69
2024/01/06 03:25:40;;;;;;;;;;;;;;;;;;5052198;28;19974;-69
2024/01/06 03:28:06;;;;;;;;;;;;;;;;;;5053842;28;19909;-70
2024/01/06 03:30:32;;;;;;;;;;;;;;;;;;5052419;28;20378;-69
2024/01/06 03:32:58;;;;;;;;;;;;;;;;;;5053933;28;20007;-69
2024/01/06 03:35:24;;;;;;;;;;;;;;;;;;5052631;28;19909;-69
2024/01/06 03:37:50;;;;;;;;;;;;;;;;;;5053317;28;20337;-70
2024/01/06 03:40:16;;;;;;;;;;;;;;;;;;5053783;28;19912;-70
2024/01/06 03:42:42;;;;;;;;;;;;;;;;;;5052534;28;20051;-69
2024/01/06 03:45:08;;;;;;;;;;;;;;;;;;5053272;28;19909;-70
2024/01/06 03:47:34;;;;;;;;;;;;;;;;;;5052491;28;19913;-70
2024/01/06 03:50:00;;;;;;;;;;;;;;;;;;5053651;28;19909;-70
2024/01/06 03:52:26;;;;;;;;;;;;;;;;;;5052048;28;19944;-69
2024/01/06 03:54:52;;;;;;;;;;;;;;;;;;5053563;28;20285;-69
2024/01/06 03:57:18;;;;;;;;;;;;;;;;;;5052130;28;20332;-69
2024/01/06 03:59:44;;;;;;;;;;;;;;;;;;5051818;28;19988;-70
2024/01/06 04:02:10;;;;;;;;;;;;;;;;;;5053530;28;19912;-70
2024/01/06 04:04:36;;;;;;;;;;;;;;;;;;5053421;28;19962;-69
2024/01/06 04:07:02;;;;;;;;;;;;;;;;;;5051830;28;20007;-70
2024/01/06 04:09:28;;;;;;;;;;;;;;;;;;5053423;28;19916;-69
2024/01/06 04:11:54;;;;;;;;;;;;;;;;;;5052224;28;20403;-70
2024/01/06 04:14:20;;;;;;;;;;;;;;;;;;5053097;28;19916;-70
2024/01/06 04:16:46;;;;;;;;;;;;;;;;;;5053539;28;19924;-70
2024/01/06 04:19:12;;;;;;;;;;;;;;;;;;5053528;28;19908;-70
2024/01/06 04:21:38;;;;;;;;;;;;;;;;;;5052985;28;20258;-70
2024/01/06 04:24:04;;;;;;;;;;;;;;;;;;5053378;28;19919;-70
2024/01/06 04:26:30;;;;;;;;;;;;;;;;;;5053415;28;19909;-69
2024/01/06 04:28:56;;;;;;;;;;;;;;;;;;5052970;28;19955;-69
2024/01/06 04:31:22;;;;;;;;;;;;;;;;;;5051927;28;20375;-70
2024/01/06 04:33:48;;;;;;;;;;;;;;;;;;5053068;28;20289;-70
2024/01/06 04:36:14;;;;;;;;;;;;;;;;;;5053766;28;19917;-69
2024/01/06 04:38:40;;;;;;;;;;;;;;;;;;5054598;28;19974;-70
2024/01/06 04:41:06;;;;;;;;;;;;;;;;;;5055403;28;19909;-70
2024/01/06 04:43:32;;;;;;;;;;;;;;;;;;5056993;28;19908;-70
2024/01/06 04:45:58;;;;;;;;;;;;;;;;;;5056979;28;19974;-70
2024/01/06 04:48:24;;;;;;;;;;;;;;;;;;5056717;28;20426;-70
2024/01/06 04:50:50;;;;;;;;;;;;;;;;;;5055681;28;19909;-70
2024/01/06 04:53:16;;;;;;;;;;;;;;;;;;5057106;28;20309;-68
2024/01/06 04:55:42;;;;;;;;;;;;;;;;;;5055042;28;19947;-68
2024/01/06 04:58:08;;;;;;;;;;;;;;;;;;5057006;28;20003;-68
2024/01/06 05:00:36;;;;;;;;;;;;;;;;;;5057020;28;19913;-68
2024/01/06 05:03:02;;;;;;;;;;;;;;;;;;5054971;28;19995;-69
2024/01/06 05:05:28;;;;;;;;;;;;;;;;;;5055445;28;20341;-69
2024/01/06 05:07:54;;;;;;;;;;;;;;;;;;5055546;28;19919;-68
2024/01/06 05:10:20;;;;;;;;;;;;;;;;;;5056196;28;20003;-69
2024/01/06 05:12:46;;;;;;;;;;;;;;;;;;5055229;28;19959;-69
2024/01/06 05:15:12;;;;;;;;;;;;;;;;;;5056539;28;20401;-69
2024/01/06 05:17:38;;;;;;;;;;;;;;;;;;5055969;28;20254;-69
2024/01/06 05:20:03;;;;;;;;;;;;;;;;;;5056341;28;19913;-68
2024/01/06 05:22:29;;;;;;;;;;;;;;;;;;5056726;28;19915;-69
2024/01/06 05:24:55;;;;;;;;;;;;;;;;;;5055920;28;19912;-69
2024/01/06 05:27:21;;;;;;;;;;;;;;;;;;5056223;28;19909;-69
2024/01/06 05:29:49;;;;;;;;;;;;;;;;;;5056224;28;19994;-69
2024/01/06 05:32:14;;;;;;;;;;;;;;;;;;5055810;28;19909;-69
2024/01/06 05:34:40;;;;;;;;;;;;;;;;;;5056470;28;20376;-69
2024/01/06 05:37:06;;;;;;;;;;;;;;;;;;5055692;28;19920;-69
2024/01/06 05:39:32;;;;;;;;;;;;;;;;;;5055936;28;20361;-69
2024/01/06 05:41:58;;;;;;;;;;;;;;;;;;5056034;28;20289;-69
2024/01/06 05:44:24;;;;;;;;;;;;;;;;;;5055576;28;20285;-69
2024/01/06 05:46:51;;;;;;;;;;;;;;;;;;5055882;28;20289;-69
2024/01/06 05:49:17;;;;;;;;;;;;;;;;;;5055462;28;19915;-69
2024/01/06 05:51:43;;;;;;;;;;;;;;;;;;5054127;28;19985;-68
2024/01/06 05:54:09;;;;;;;;;;;;;;;;;;5055711;28;19918;-68
2024/01/06 05:56:35;;;;;;;;;;;;;;;;;;5055349;28;19920;-68
2024/01/06 05:59:02;;;;;;;;;;;;;;;;;;5053980;28;19916;-68
2024/01/06 06:01:28;;;;;;;;;;;;;;;;;;5055879;28;20010;-69
2024/01/06 06:03:54;;;;;;;;;;;;;;;;;;5055530;28;19999;-69
2024/01/06 06:06:20;;;;;;;;;;;;;;;;;;5053862;28;19909;-68
2024/01/06 06:08:48;;;;;;;;;;;;;;;;;;5055426;28;20000;-68
2024/01/06 06:11:14;;;;;;;;;;;;;;;;;;5054154;28;19919;-69
2024/01/06 06:13:40;;;;;;;;;;;;;;;;;;5054934;28;20281;-68
2024/01/06 06:16:06;;;;;;;;;;;;;;;;;;5055297;28;19958;-68
2024/01/06 06:18:32;;;;;;;;;;;;;;;;;;5053988;28;20292;-69
2024/01/06 06:20:58;;;;;;;;;;;;;;;;;;5053543;28;20254;-69
2024/01/06 06:23:24;;;;;;;;;;;;;;;;;;5053934;28;19962;-69
2024/01/06 06:25:51;;;;;;;;;;;;;;;;;;5055205;28;19916;-69
2024/01/06 06:28:17;;;;;;;;;;;;;;;;;;5054740;28;19913;-70
2024/01/06 06:30:43;;;;;;;;;;;;;;;;;;5055333;28;19916;-70
2024/01/06 06:33:09;;;;;;;;;;;;;;;;;;5055032;28;20042;-69
2024/01/06 06:35:35;;;;;;;;;;;;;;;;;;5054448;28;19969;-69
2024/01/06 06:38:01;;;;;;;;;;;;;;;;;;5054853;28;19944;-69
2024/01/06 06:40:27;;;;;;;;;;;;;;;;;;5053151;28;19915;-68
2024/01/06 06:42:53;;;;;;;;;;;;;;;;;;5054843;28;20003;-69
2024/01/06 06:45:22;;;;;;;;;;;;;;;;;;5054769;28;20380;-69
2024/01/06 06:47:49;;;;;;;;;;;;;;;;;;5054409;28;19915;-68
2024/01/06 06:50:15;;;;;;;;;;;;;;;;;;5054752;28;19924;-68
2024/01/06 06:52:42;;;;;;;;;;;;;;;;;;5054641;28;19913;-68
2024/01/06 06:55:08;;;;;;;;;;;;;;;;;;5054028;28;19908;-68
2024/01/06 06:57:33;;;;;;;;;;;;;;;;;;5055088;28;20023;-69
2024/01/06 07:00:00;;;;;;;;;;;;;;;;;;5054519;28;19955;-69
2024/01/06 07:02:26;;;;;;;;;;;;;;;;;;5053333;28;20280;-68
2024/01/06 07:04:52;;;;;;;;;;;;;;;;;;5054519;28;19908;-68
2024/01/06 07:07:18;;;;;;;;;;;;;;;;;;5053104;28;19962;-68
2024/01/06 07:09:44;;;;;;;;;;;;;;;;;;5052563;28;19928;-68
2024/01/06 07:12:09;;;;;;;;;;;;;;;;;;5054257;28;19998;-68
2024/01/06 07:14:37;;;;;;;;;;;;;;;;;;5054185;28;19975;-68
2024/01/06 07:17:03;;;;;;;;;;;;;;;;;;5053684;28;19917;-68
2024/01/06 07:19:29;;;;;;;;;;;;;;;;;;5054084;28;19944;-68
2024/01/06 07:21:55;;;;;;;;;;;;;;;;;;5054072;28;20388;-68
2024/01/06 07:24:21;;;;;;;;;;;;;;;;;;5053645;28;20365;-68
2024/01/06 07:26:47;;;;;;;;;;;;;;;;;;5052743;28;20272;-68
2024/01/06 07:29:13;;;;;;;;;;;;;;;;;;5052658;28;19978;-69
2024/01/06 07:31:39;;;;;;;;;;;;;;;;;;5052277;28;20016;-69
2024/01/06 07:34:06;;;;;;;;;;;;;;;;;;5054076;28;19963;-69
2024/01/06 07:36:32;;;;;;;;;;;;;;;;;;5053896;28;20440;-69
2024/01/06 07:38:58;;;;;;;;;;;;;;;;;;5053443;28;19913;-69
2024/01/06 07:41:23;;;;;;;;;;;;;;;;;;5053840;28;20334;-69
2024/01/06 07:43:49;;;;;;;;;;;;;;;;;;5053516;28;19916;-69
2024/01/06 07:46:15;;;;;;;;;;;;;;;;;;5053711;28;19908;-69
2024/01/06 07:48:41;;;;;;;;;;;;;;;;;;5053779;28;19998;-69
2024/01/06 07:51:07;;;;;;;;;;;;;;;;;;5053382;28;19916;-69
2024/01/06 07:53:33;;;;;;;;;;;;;;;;;;5052363;28;19909;-69
2024/01/06 07:55:59;;;;;;;;;;;;;;;;;;5053441;28;19956;-69
2024/01/06 07:58:25;;;;;;;;;;;;;;;;;;5053458;28;19916;-69
2024/01/06 08:00:51;;;;;;;;;;;;;;;;;;5054100;28;19971;-69
2024/01/06 08:03:17;;;;;;;;;;;;;;;;;;5053518;28;20262;-69
2024/01/06 08:05:43;;;;;;;;;;;;;;;;;;5053045;28;19963;-69
2024/01/06 08:08:09;;;;;;;;;;;;;;;;;;5053481;28;19909;-69
2024/01/06 08:10:35;;;;;;;;;;;;;;;;;;5052198;28;19915;-69
2024/01/06 08:13:01;;;;;;;;;;;;;;;;;;5053748;28;19909;-69
2024/01/06 08:15:27;;;;;;;;;;;;;;;;;;5057643;28;20389;-69
2024/01/06 08:17:53;;;;;;;;;;;;;;;;;;5056126;28;20011;-69
2024/01/06 08:20:19;;;;;;;;;;;;;;;;;;5057170;28;19916;-69
2024/01/06 08:22:45;;;;;;;;;;;;;;;;;;5057851;28;19921;-69
2024/01/06 08:25:11;;;;;;;;;;;;;;;;;;5057400;28;20285;-69
2024/01/06 08:27:37;;;;;;;;;;;;;;;;;;5056852;28;19999;-69
2024/01/06 08:30:03;;;;;;;;;;;;;;;;;;5057321;28;19909;-70
2024/01/06 08:32:29;;;;;;;;;;;;;;;;;;5056029;28;19909;-69
2024/01/06 08:34:55;;;;;;;;;;;;;;;;;;5056880;28;19948;-69
2024/01/06 08:37:21;;;;;;;;;;;;;;;;;;5055833;28;19916;-69
2024/01/06 08:39:47;;;;;;;;;;;;;;;;;;5057659;28;20294;-69
2024/01/06 08:42:13;;;;;;;;;;;;;;;;;;5056698;28;19909;-69
2024/01/06 08:44:39;;;;;;;;;;;;;;;;;;5057372;28;19970;-69
2024/01/06 08:47:05;;;;;;;;;;;;;;;;;;5056587;28;19909;-69
2024/01/06 08:49:31;;;;;;;;;;;;;;;;;;5056940;28;19909;-70
2024/01/06 08:51:57;;;;;;;;;;;;;;;;;;5057083;28;20353;-70
2024/01/06 08:54:23;;;;;;;;;;;;;;;;;;5056735;28;20420;-70
2024/01/06 08:56:49;;;;;;;;;;;;;;;;;;5056438;28;19925;-70
2024/01/06 08:59:15;;;;;;;;;;;;;;;;;;5056907;28;19915;-69
2024/01/06 09:01:40;;;;;;;;;;;;;;;;;;5056673;28;19909;-70
2024/01/06 09:04:06;;;;;;;;;;;;;;;;;;5056727;28;19975;-70
2024/01/06 09:06:32;;;;;;;;;;;;;;;;;;5056595;28;20277;-69
2024/01/06 09:08:58;;;;;;;;;;;;;;;;;;5056136;28;19931;-69
2024/01/06 09:11:24;;;;;;;;;;;;;;;;;;5056513;28;19913;-69
2024/01/06 09:13:52;;;;;;;;;;;;;;;;;;5056342;28;19915;-69
2024/01/06 09:16:18;;;;;;;;;;;;;;;;;;5055952;28;19916;-70
2024/01/06 09:18:44;;;;;;;;;;;;;;;;;;5056397;28;19935;-69
2024/01/06 09:21:10;;;;;;;;;;;;;;;;;;5056288;28;19913;-70
2024/01/06 09:23:36;;;;;;;;;;;;;;;;;;5055593;28;20007;-70
2024/01/06 09:26:02;;;;;;;;;;;;;;;;;;5055941;28;19947;-70
2024/01/06 09:28:28;;;;;;;;;;;;;;;;;;5056233;28;19916;-70
2024/01/06 09:30:55;;;;;;;;;;;;;;;;;;5054488;28;20273;-70
2024/01/06 09:33:21;;;;;;;;;;;;;;;;;;5056051;28;19909;-70
2024/01/06 09:35:47;;;;;;;;;;;;;;;;;;5054711;28;19915;-70
2024/01/06 09:38:13;;;;;;;;;;;;;;;;;;5055228;28;19939;-70
2024/01/06 09:40:39;;;;;;;;;;;;;;;;;;5055036;28;19909;-70
2024/01/06 09:43:05;;;;;;;;;;;;;;;;;;5055810;28;20288;-70
2024/01/06 09:45:31;;;;;;;;;;;;;;;;;;5055437;28;20324;-70
2024/01/06 09:47:57;;;;;;;;;;;;;;;;;;5055792;28;19909;-70
2024/01/06 09:50:23;;;;;;;;;;;;;;;;;;5055498;28;19948;-70
2024/01/06 09:52:53;;;;;;;;;;;;;;;;;;5054397;28;19959;-70
2024/01/06 09:55:19;;;;;;;;;;;;;;;;;;5055698;28;20000;-70
2024/01/06 09:57:45;;;;;;;;;;;;;;;;;;5053507;28;20020;-70
2024/01/06 10:00:11;;;;;;;;;;;;;;;;;;5055195;28;19909;-70
2024/01/06 10:02:37;;;;;;;;;;;;;;;;;;5053869;28;19916;-70
2024/01/06 10:05:03;;;;;;;;;;;;;;;;;;5055025;28;19908;-70
2024/01/06 10:07:29;;;;;;;;;;;;;;;;;;5055498;28;19962;-70
2024/01/06 10:09:55;;;;;;;;;;;;;;;;;;5055230;28;19912;-70
2024/01/06 10:12:21;;;;;;;;;;;;;;;;;;5054953;28;20354;-70
2024/01/06 10:14:47;;;;;;;;;;;;;;;;;;5055377;28;19924;-70
2024/01/06 10:17:14;;;;;;;;;;;;;;;;;;5055467;28;19952;-70
2024/01/06 10:19:40;;;;;;;;;;;;;;;;;;5053471;28;19999;-70
2024/01/06 10:22:06;;;;;;;;;;;;;;;;;;5053925;28;20013;-71
2024/01/06 10:24:32;;;;;;;;;;;;;;;;;;5053901;28;20000;-70
2024/01/06 10:26:58;;;;;;;;;;;;;;;;;;5053392;28;19998;-70
2024/01/06 10:29:24;;;;;;;;;;;;;;;;;;5055007;28;19908;-70
2024/01/06 10:31:50;;;;;;;;;;;;;;;;;;5054047;28;20266;-70
2024/01/06 10:34:16;;;;;;;;;;;;;;;;;;5054582;28;19908;-70
2024/01/06 10:36:42;;;;;;;;;;;;;;;;;;5053726;28;19959;-71
2024/01/06 10:39:09;;;;;;;;;;;;;;;;;;5053516;28;19909;-70
2024/01/06 10:41:35;;;;;;;;;;;;;;;;;;5053021;28;19955;-70
2024/01/06 10:44:01;;;;;;;;;;;;;;;;;;5054671;28;19956;-70
2024/01/06 10:46:27;;;;;;;;;;;;;;;;;;5054734;28;19909;-68
2024/01/06 10:48:53;;;;;;;;;;;;;;;;;;5054263;28;20008;-70
2024/01/06 10:51:19;;;;;;;;;;;;;;;;;;5054611;28;19908;-70
2024/01/06 10:53:47;;;;;;;;;;;;;;;;;;5054171;28;19909;-70
2024/01/06 10:56:13;;;;;;;;;;;;;;;;;;5054311;28;19921;-70
2024/01/06 10:58:42;;;;;;;;;;;;;;;;;;5055149;28;20274;-70
2024/01/06 11:01:08;;;;;;;;;;;;;;;;;;5054013;28;20365;-70
2024/01/06 11:03:34;;;;;;;;;;;;;;;;;;5054521;28;19920;-70
2024/01/06 11:06:00;;;;;;;;;;;;;;;;;;5054444;28;20429;-70
2024/01/06 11:08:26;;;;;;;;;;;;;;;;;;5052669;28;20004;-70
2024/01/06 11:10:52;;;;;;;;;;;;;;;;;;5054258;28;19909;-70
2024/01/06 11:13:20;;;;;;;;;;;;;;;;;;5054583;28;19909;-70
2024/01/06 11:15:46;;;;;;;;;;;;;;;;;;5052420;28;19908;-70
2024/01/06 11:18:12;;;;;;;;;;;;;;;;;;5052910;28;19935;-70
2024/01/06 11:20:38;;;;;;;;;;;;;;;;;;5054176;28;19909;-69
2024/01/06 11:23:04;;;;;;;;;;;;;;;;;;5052405;28;19919;-70
2024/01/06 11:25:30;;;;;;;;;;;;;;;;;;5054062;28;19913;-69
2024/01/06 11:27:57;;;;;;;;;;;;;;;;;;5054006;28;19956;-69
2024/01/06 11:30:23;;;;;;;;;;;;;;;;;;5052387;28;20345;-69
2024/01/06 11:32:49;;;;;;;;;;;;;;;;;;5052543;28;19984;-69
2024/01/06 11:35:15;;;;;;;;;;;;;;;;;;5053902;28;20277;-70
2024/01/06 11:37:41;;;;;;;;;;;;;;;;;;5053556;28;19917;-70
2024/01/06 11:40:07;;;;;;;;;;;;;;;;;;5053796;28;19909;-69
2024/01/06 11:42:33;;;;;;;;;;;;;;;;;;5053747;28;19992;-70
2024/01/06 11:44:59;;;;;;;;;;;;;;;;;;5053312;28;20369;-70
2024/01/06 11:47:25;;;;;;;;;;;;;;;;;;5053445;28;19908;-70
2024/01/06 11:49:51;;;;;;;;;;;;;;;;;;5053436;28;19960;-71
2024/01/06 11:52:17;;;;;;;;;;;;;;;;;;5052352;28;19908;-71
2024/01/06 11:54:43;;;;;;;;;;;;;;;;;;5053651;28;19916;-70
2024/01/06 11:57:09;;;;;;;;;;;;;;;;;;5052987;28;19924;-71
2024/01/06 11:59:37;;;;;;;;;;;;;;;;;;5052856;28;20233;-70
2024/01/06 12:02:03;;;;;;;;;;;;;;;;;;5052268;28;19959;-70
2024/01/06 12:04:29;;;;;;;;;;;;;;;;;;5053124;28;19908;-71
2024/01/06 12:06:55;;;;;;;;;;;;;;;;;;5054323;28;20269;-71
2024/01/06 12:09:24;;;;;;;;;;;;;;;;;;5052251;28;19905;-70
2024/01/06 12:11:49;;;;;;;;;;;;;;;;;;5051899;28;19956;-70
2024/01/06 12:14:15;;;;;;;;;;;;;;;;;;5053492;28;19905;-70
2024/01/06 12:16:41;;;;;;;;;;;;;;;;;;5053033;28;20296;-69
2024/01/06 12:19:08;;;;;;;;;;;;;;;;;;5051342;28;19987;-69
2024/01/06 12:21:37;;;;;;;;;;;;;;;;;;5051834;28;19944;-69
2024/01/06 12:24:03;;;;;;;;;;;;;;;;;;5052432;28;19992;-69
2024/01/06 12:26:29;;;;;;;;;;;;;;;;;;5052420;28;20051;-69
2024/01/06 12:28:55;;;;;;;;;;;;;;;;;;5052742;28;19909;-69
2024/01/06 12:31:23;;;;;;;;;;;;;;;;;;5052838;28;19931;-70
2024/01/06 12:33:49;;;;;;;;;;;;;;;;;;5050121;28;19993;-70
2024/01/06 12:36:15;;;;;;;;;;;;;;;;;;5053173;28;20380;-70
2024/01/06 12:38:41;;;;;;;;;;;;;;;;;;5053274;28;19908;-70
2024/01/06 12:41:07;;;;;;;;;;;;;;;;;;5051473;28;19909;-70
2024/01/06 12:43:33;;;;;;;;;;;;;;;;;;5053244;28;19916;-70
2024/01/06 12:45:58;;;;;;;;;;;;;;;;;;5053250;28;19952;-69
2024/01/06 12:48:24;;;;;;;;;;;;;;;;;;5052720;28;20369;-70
2024/01/06 12:50:50;;;;;;;;;;;;;;;;;;5051714;28;20272;-70
2024/01/06 12:53:17;;;;;;;;;;;;;;;;;;5052707;28;20007;-69
2024/01/06 12:55:43;;;;;;;;;;;;;;;;;;5053244;28;19917;-69
2024/01/06 12:58:09;;;;;;;;;;;;;;;;;;5052985;28;19924;-69
2024/01/06 13:00:35;;;;;;;;;;;;;;;;;;5055440;28;19909;-70
2024/01/06 13:03:01;;;;;;;;;;;;;;;;;;5056839;28;19963;-70
2024/01/06 13:05:27;;;;;;;;;;;;;;;;;;5055357;28;19908;-69
2024/01/06 13:07:52;;;;;;;;;;;;;;;;;;5056685;28;20003;-70
2024/01/06 13:10:18;;;;;;;;;;;;;;;;;;5056639;28;19909;-70
2024/01/06 13:12:44;;;;;;;;;;;;;;;;;;5056616;28;19931;-69
2024/01/06 13:15:11;;;;;;;;;;;;;;;;;;5056138;28;20021;-70
2024/01/06 13:17:37;;;;;;;;;;;;;;;;;;5055161;28;20355;-70
2024/01/06 13:20:03;;;;;;;;;;;;;;;;;;5056982;28;19909;-69
2024/01/06 13:22:29;;;;;;;;;;;;;;;;;;5055988;28;19920;-68
2024/01/06 13:24:55;;;;;;;;;;;;;;;;;;5056364;28;19909;-69
2024/01/06 13:27:21;;;;;;;;;;;;;;;;;;5056255;28;19935;-68
2024/01/06 13:29:46;;;;;;;;;;;;;;;;;;5055897;28;19951;-68
2024/01/06 13:32:13;;;;;;;;;;;;;;;;;;5056213;28;20388;-69
2024/01/06 13:34:39;;;;;;;;;;;;;;;;;;5056242;28;20341;-70
2024/01/06 13:37:06;;;;;;;;;;;;;;;;;;5055664;28;19917;-70
2024/01/06 13:39:32;;;;;;;;;;;;;;;;;;5056041;28;19909;-69
2024/01/06 13:41:58;;;;;;;;;;;;;;;;;;5056059;28;19908;-69
2024/01/06 13:44:24;;;;;;;;;;;;;;;;;;5055506;28;19913;-70
2024/01/06 13:46:50;;;;;;;;;;;;;;;;;;5056173;28;19909;-70
2024/01/06 13:49:16;;;;;;;;;;;;;;;;;;5056100;28;19909;-69
2024/01/06 13:51:42;;;;;;;;;;;;;;;;;;5055452;28;19909;-69
2024/01/06 13:54:09;;;;;;;;;;;;;;;;;;5054580;28;19962;-69
2024/01/06 13:56:35;;;;;;;;;;;;;;;;;;5055380;28;19920;-70
2024/01/06 13:59:01;;;;;;;;;;;;;;;;;;5055754;28;19928;-71
2024/01/06 14:01:27;;;;;;;;;;;;;;;;;;5055787;28;19912;-70
2024/01/06 14:03:57;;;;;;;;;;;;;;;;;;5055327;28;20354;-69
2024/01/06 14:06:23;;;;;;;;;;;;;;;;;;5054656;28;20280;-69
2024/01/06 14:08:49;;;;;;;;;;;;;;;;;;5055629;28;19916;-70
2024/01/06 14:11:15;;;;;;;;;;;;;;;;;;5055364;28;19909;-69
2024/01/06 14:13:41;;;;;;;;;;;;;;;;;;5055508;28;19944;-69
2024/01/06 14:16:08;;;;;;;;;;;;;;;;;;5054088;28;20046;-69
2024/01/06 14:18:34;;;;;;;;;;;;;;;;;;5055085;28;19912;-70
2024/01/06 14:20:59;;;;;;;;;;;;;;;;;;5055291;28;19909;-70
2024/01/06 14:23:27;;;;;;;;;;;;;;;;;;5055172;28;19909;-70
2024/01/06 14:25:53;;;;;;;;;;;;;;;;;;5054854;28;19909;-70
2024/01/06 14:28:20;;;;;;;;;;;;;;;;;;5055049;28;19992;-69
2024/01/06 14:30:46;;;;;;;;;;;;;;;;;;5055082;28;19909;-69
2024/01/06 14:33:12;;;;;;;;;;;;;;;;;;5054778;28;19916;-69
2024/01/06 14:35:38;;;;;;;;;;;;;;;;;;5053692;28;19918;-69
2024/01/06 14:38:05;;;;;;;;;;;;;;;;;;5055165;28;19921;-70
2024/01/06 14:40:31;;;;;;;;;;;;;;;;;;5054438;28;19943;-69
2024/01/06 14:42:57;;;;;;;;;;;;;;;;;;5054786;28;19908;-70
2024/01/06 14:45:23;;;;;;;;;;;;;;;;;;5054733;28;19916;-70
2024/01/06 14:47:50;;;;;;;;;;;;;;;;;;5054336;28;19909;-69
2024/01/06 14:50:16;;;;;;;;;;;;;;;;;;5053392;28;19909;-69
2024/01/06 14:52:42;;;;;;;;;;;;;;;;;;5054428;28;19962;-69
2024/01/06 14:55:09;;;;;;;;;;;;;;;;;;5054522;28;19916;-69
2024/01/06 14:57:35;;;;;;;;;;;;;;;;;;5054602;28;20015;-69
2024/01/06 15:00:01;;;;;;;;;;;;;;;;;;5054234;28;20002;-70
2024/01/06 15:02:27;;;;;;;;;;;;;;;;;;5053189;28;19916;-69
2024/01/06 15:04:53;;;;;;;;;;;;;;;;;;5054741;28;19909;-70
2024/01/06 15:07:19;;;;;;;;;;;;;;;;;;5053965;28;20003;-69
2024/01/06 15:09:45;;;;;;;;;;;;;;;;;;5054324;28;19909;-70
2024/01/06 15:12:11;;;;;;;;;;;;;;;;;;5052986;28;20273;-70
2024/01/06 15:14:37;;;;;;;;;;;;;;;;;;5052635;28;20316;-70
2024/01/06 15:17:03;;;;;;;;;;;;;;;;;;5052870;28;19917;-70
2024/01/06 15:19:31;;;;;;;;;;;;;;;;;;5054175;28;19915;-69
2024/01/06 15:21:57;;;;;;;;;;;;;;;;;;5053199;28;19909;-70
2024/01/06 15:24:23;;;;;;;;;;;;;;;;;;5052844;28;19916;-70
2024/01/06 15:26:49;;;;;;;;;;;;;;;;;;5054040;28;19909;-70
2024/01/06 15:29:15;;;;;;;;;;;;;;;;;;5052447;28;19908;-70
2024/01/06 15:31:41;;;;;;;;;;;;;;;;;;5054249;28;20440;-69
2024/01/06 15:34:07;;;;;;;;;;;;;;;;;;5052687;28;20373;-69
2024/01/06 15:36:33;;;;;;;;;;;;;;;;;;5053418;28;20366;-69
2024/01/06 15:38:59;;;;;;;;;;;;;;;;;;5054248;28;20017;-69
2024/01/06 15:41:25;;;;;;;;;;;;;;;;;;5054400;28;20368;-69
2024/01/06 15:43:51;;;;;;;;;;;;;;;;;;5053489;28;20277;-70
2024/01/06 15:46:17;;;;;;;;;;;;;;;;;;5053953;28;20250;-69
2024/01/06 15:48:43;;;;;;;;;;;;;;;;;;5053729;28;19954;-69
2024/01/06 15:51:09;;;;;;;;;;;;;;;;;;5053197;28;19908;-69
2024/01/06 15:53:35;;;;;;;;;;;;;;;;;;5053775;28;19956;-69
2024/01/06 15:56:01;;;;;;;;;;;;;;;;;;5053303;28;20338;-70
2024/01/06 15:58:27;;;;;;;;;;;;;;;;;;5052307;28;20356;-69
2024/01/06 16:00:53;;;;;;;;;;;;;;;;;;5052272;28;20008;-70
2024/01/06 16:03:19;;;;;;;;;;;;;;;;;;5053291;28;19909;-70
2024/01/06 16:05:45;;;;;;;;;;;;;;;;;;5053617;28;19943;-70
2024/01/06 16:08:11;;;;;;;;;;;;;;;;;;5053605;28;19908;-70
2024/01/06 16:10:37;;;;;;;;;;;;;;;;;;5051930;28;19908;-70
2024/01/06 16:13:03;;;;;;;;;;;;;;;;;;5053536;28;19955;-70
2024/01/06 16:15:29;;;;;;;;;;;;;;;;;;5052256;28;19935;-70
2024/01/06 16:17:55;;;;;;;;;;;;;;;;;;5052971;28;20333;-70
2024/01/06 16:20:21;;;;;;;;;;;;;;;;;;5053406;28;19913;-70
2024/01/06 16:22:50;;;;;;;;;;;;;;;;;;5051997;28;19909;-70
2024/01/06 16:25:16;;;;;;;;;;;;;;;;;;5053165;28;19915;-69
2024/01/06 16:27:42;;;;;;;;;;;;;;;;;;5053338;28;20346;-69
2024/01/06 16:30:08;;;;;;;;;;;;;;;;;;5053335;28;20270;-69
2024/01/06 16:32:34;;;;;;;;;;;;;;;;;;5052983;28;19913;-69
2024/01/06 16:35:00;;;;;;;;;;;;;;;;;;5055640;28;20364;-70
2024/01/06 16:37:26;;;;;;;;;;;;;;;;;;5057153;28;19923;-70